createdAt,value
2018-06-07T00:00:24.524Z,91.23
2018-06-07T00:03:05.022Z,92.08
2018-06-07T00:05:40.736Z,91.96
2018-06-07T00:08:17.754Z,92.36
2018-06-07T00:10:55.634Z,92.43
2018-06-07T00:13:27.103Z,91.95
2018-06-07T00:16:02.308Z,91.38
2018-06-07T00:18:34.719Z,92.19
2018-06-07T00:21:05.984Z,92.00
2018-06-07T00:23:38.060Z,93.09
2018-06-07T00:26:09.661Z,92.25
2018-06-07T00:28:40.792Z,93.53
2018-06-07T00:31:12.067Z,94.46
2018-06-07T00:33:43.421Z,94.98
2018-06-07T00:36:14.521Z,94.43
2018-06-07T00:38:45.997Z,94.23
2018-06-07T00:41:18.536Z,94.55
2018-06-07T00:43:49.749Z,94.64
2018-06-07T00:46:21.130Z,95.81
2018-06-07T00:48:52.827Z,96.12
2018-06-07T00:51:23.946Z,96.65
2018-06-07T00:53:55.090Z,96.70
2018-06-07T00:56:37.543Z,97.07
2018-06-07T00:59:08.735Z,97.73
2018-06-07T01:01:41.080Z,97.56
2018-06-07T01:04:13.393Z,97.36
2018-06-07T01:06:45.105Z,97.59
2018-06-07T01:09:16.827Z,98.31
2018-06-07T01:11:47.960Z,99.51
2018-06-07T01:14:19.635Z,98.72
2018-06-07T01:16:51.092Z,98.44
2018-06-07T01:19:22.200Z,99.23
2018-06-07T01:21:53.468Z,98.70
2018-06-07T01:24:35.224Z,99.01
2018-06-07T01:27:18.808Z,99.04
2018-06-07T01:30:00.603Z,100.00
2018-06-07T01:32:50.503Z,100.00
2018-06-07T01:35:23.384Z,100.00
2018-06-07T01:38:05.573Z,100.00
2018-06-07T01:41:06.872Z,100.00
2018-06-07T01:43:39.385Z,100.00
2018-06-07T01:46:10.710Z,100.00
2018-06-07T01:48:42.102Z,100.00
2018-06-07T01:51:17.623Z,100.00
2018-06-07T01:54:03.036Z,100.00
2018-06-07T01:56:34.608Z,100.00
2018-06-07T01:59:05.664Z,100.00
2018-06-07T02:01:46.597Z,100.00
2018-06-07T02:04:22.992Z,100.00
2018-06-07T02:06:55.383Z,100.00
2018-06-07T02:09:26.748Z,100.00
2018-06-07T02:11:58.660Z,100.00
2018-06-07T02:14:29.892Z,100.00
2018-06-07T02:17:01.119Z,100.00
2018-06-07T02:19:32.170Z,100.00
2018-06-07T02:22:03.558Z,100.00
2018-06-07T02:24:58.860Z,100.00
2018-06-07T02:27:30.319Z,100.00
2018-06-07T02:30:01.713Z,100.00
2018-06-07T02:32:44.143Z,100.00
2018-06-07T02:35:19.340Z,100.00
2018-06-07T02:37:50.621Z,100.00
2018-06-07T02:40:22.716Z,100.00
2018-06-07T02:42:53.962Z,100.00
2018-06-07T02:45:25.536Z,100.00
2018-06-07T02:47:56.985Z,100.00
2018-06-07T02:50:28.351Z,100.00
2018-06-07T02:53:00.151Z,100.00
2018-06-07T02:55:56.972Z,100.00
2018-06-07T02:58:28.353Z,100.00
2018-06-07T03:00:59.555Z,100.00
2018-06-07T03:03:31.395Z,100.00
2018-06-07T03:06:02.710Z,100.00
2018-06-07T03:08:33.937Z,100.00
2018-06-07T03:11:05.078Z,100.00
2018-06-07T03:13:36.553Z,100.00
2018-06-07T03:16:15.564Z,100.00
2018-06-07T03:18:46.812Z,99.59
2018-06-07T03:21:18.321Z,99.72
2018-06-07T03:23:49.587Z,100.00
2018-06-07T03:26:20.875Z,100.00
2018-06-07T03:28:52.166Z,98.72
2018-06-07T03:31:23.166Z,97.49
2018-06-07T03:33:55.363Z,98.03
2018-06-07T03:36:26.791Z,99.00
2018-06-07T03:38:58.058Z,99.03
2018-06-07T03:41:29.363Z,100.00
2018-06-07T03:44:00.521Z,100.00
2018-06-07T03:46:31.673Z,100.00
2018-06-07T03:49:03.317Z,100.00
2018-06-07T03:51:34.401Z,100.00
2018-06-07T03:54:05.980Z,100.00
2018-06-07T03:56:37.179Z,100.00
2018-06-07T03:59:08.237Z,100.00
2018-06-07T04:01:39.272Z,100.00
2018-06-07T04:04:10.814Z,100.00
2018-06-07T04:06:41.965Z,100.00
2018-06-07T04:09:13.321Z,100.00
2018-06-07T04:11:45.468Z,100.00
2018-06-07T04:14:16.933Z,100.00
2018-06-07T04:16:48.232Z,100.00
2018-06-07T04:19:19.459Z,100.00
2018-06-07T04:21:50.546Z,100.00
2018-06-07T04:24:21.750Z,100.00
2018-06-07T04:26:52.958Z,100.00
2018-06-07T04:29:24.492Z,99.33
2018-06-07T04:31:55.692Z,99.33
2018-06-07T04:34:26.943Z,99.22
2018-06-07T04:36:58.241Z,99.35
2018-06-07T04:39:29.429Z,99.00
2018-06-07T04:42:00.529Z,99.82
2018-06-07T04:44:31.865Z,98.79
2018-06-07T04:47:03.021Z,99.28
2018-06-07T04:49:34.227Z,100.00
2018-06-07T04:52:05.531Z,100.00
2018-06-07T04:54:36.679Z,100.00
2018-06-07T04:57:07.780Z,100.00
2018-06-07T04:59:38.978Z,98.87
2018-06-07T05:02:09.893Z,96.25
2018-06-07T05:04:41.183Z,95.92
2018-06-07T05:07:12.299Z,96.37
2018-06-07T05:09:43.371Z,95.81
2018-06-07T05:12:14.921Z,96.49
2018-06-07T05:14:46.047Z,95.69
2018-06-07T05:17:17.450Z,95.90
2018-06-07T05:19:49.042Z,96.69
2018-06-07T05:22:20.235Z,96.89
2018-06-07T05:24:51.471Z,96.76
2018-06-07T05:27:22.894Z,96.41
2018-06-07T05:29:54.221Z,95.59
2018-06-07T05:32:25.498Z,95.12
2018-06-07T05:34:56.765Z,94.57
2018-06-07T05:37:27.779Z,93.52
2018-06-07T05:39:58.958Z,91.07
2018-06-07T05:42:30.262Z,85.54
2018-06-07T05:45:01.447Z,80.37
2018-06-07T05:47:32.551Z,76.83
2018-06-07T05:50:03.728Z,73.82
2018-06-07T05:52:35.408Z,72.80
2018-06-07T05:55:06.635Z,70.37
2018-06-07T05:57:37.571Z,69.75
2018-06-07T06:00:08.727Z,68.82
2018-06-07T06:02:40.019Z,67.57
2018-06-07T06:05:11.492Z,67.14
2018-06-07T06:07:43.102Z,69.14
2018-06-07T06:10:18.412Z,67.49
2018-06-07T06:12:50.072Z,67.35
2018-06-07T06:15:21.437Z,65.95
2018-06-07T06:17:52.513Z,65.00
2018-06-07T06:20:23.823Z,63.82
2018-06-07T06:22:54.999Z,62.76
2018-06-07T06:25:26.271Z,62.82
2018-06-07T06:27:57.698Z,59.46
2018-06-07T06:30:28.897Z,59.25
2018-06-07T06:33:00.028Z,60.68
2018-06-07T06:35:31.195Z,59.16
2018-06-07T06:38:35.891Z,57.94
2018-06-07T06:41:07.187Z,55.90
2018-06-07T06:43:38.389Z,55.46
2018-06-07T06:46:11.179Z,55.73
2018-06-07T06:48:42.835Z,53.86
2018-06-07T06:51:16.304Z,53.56
2018-06-07T06:53:48.638Z,52.46
2018-06-07T06:56:20.427Z,54.03
2018-06-07T06:58:52.111Z,51.90
2018-06-07T07:01:23.303Z,49.82
2018-06-07T07:03:54.396Z,49.99
2018-06-07T07:06:25.625Z,50.24
2018-06-07T07:08:56.924Z,50.77
2018-06-07T07:11:28.293Z,51.29
2018-06-07T07:13:59.368Z,51.02
2018-06-07T07:16:30.584Z,48.82
2018-06-07T07:19:01.604Z,50.13
2018-06-07T07:21:32.800Z,52.28
2018-06-07T07:24:03.945Z,48.77
2018-06-07T07:26:35.245Z,49.50
2018-06-07T07:29:06.486Z,49.58
2018-06-07T07:31:37.618Z,47.18
2018-06-07T07:34:08.672Z,44.83
2018-06-07T07:36:39.738Z,45.58
2018-06-07T07:39:10.785Z,49.34
2018-06-07T07:41:42.212Z,47.55
2018-06-07T07:44:13.966Z,48.78
2018-06-07T07:46:45.507Z,48.42
2018-06-07T07:49:17.207Z,48.51
2018-06-07T07:51:48.826Z,47.86
2018-06-07T07:54:20.143Z,45.01
2018-06-07T07:56:51.326Z,45.13
2018-06-07T07:59:22.460Z,47.38
2018-06-07T08:01:53.786Z,46.31
2018-06-07T08:04:25.009Z,45.52
2018-06-07T08:06:56.017Z,43.09
2018-06-07T08:09:27.044Z,45.93
2018-06-07T08:11:58.314Z,44.71
2018-06-07T08:14:29.420Z,41.46
2018-06-07T08:17:00.608Z,41.43
2018-06-07T08:19:31.679Z,41.22
2018-06-07T08:22:02.915Z,39.92
2018-06-07T08:24:34.079Z,40.54
2018-06-07T08:27:05.237Z,41.20
2018-06-07T08:29:36.359Z,40.41
2018-06-07T08:32:07.648Z,41.47
2018-06-07T08:34:38.735Z,40.77
2018-06-07T08:37:09.971Z,43.04
2018-06-07T08:39:42.193Z,41.58
2018-06-07T08:42:13.307Z,41.16
2018-06-07T08:44:44.612Z,41.69
2018-06-07T08:47:16.088Z,40.66
2018-06-07T08:49:47.979Z,42.90
2018-06-07T08:52:19.169Z,40.66
2018-06-07T08:54:55.388Z,39.50
2018-06-07T08:57:26.741Z,38.87
2018-06-07T08:59:57.957Z,38.67
2018-06-07T09:02:29.093Z,37.85
2018-06-07T09:05:00.080Z,38.00
2018-06-07T09:07:31.389Z,39.51
2018-06-07T09:10:02.563Z,40.61
2018-06-07T09:12:33.764Z,39.56
2018-06-07T09:15:04.875Z,37.94
2018-06-07T09:17:36.961Z,36.83
2018-06-07T09:20:08.284Z,37.13
2018-06-07T09:22:39.664Z,38.62
2018-06-07T09:25:10.887Z,38.69
2018-06-07T09:27:42.171Z,40.96
2018-06-07T09:30:13.478Z,38.09
2018-06-07T09:32:44.688Z,39.53
2018-06-07T09:35:19.116Z,37.69
2018-06-07T09:37:50.461Z,36.70
2018-06-07T09:40:23.083Z,35.90
2018-06-07T09:42:54.303Z,37.12
2018-06-07T09:45:25.398Z,36.30
2018-06-07T09:47:56.733Z,36.03
2018-06-07T09:50:27.783Z,37.80
2018-06-07T09:52:58.942Z,35.74
2018-06-07T09:55:30.524Z,33.79
2018-06-07T09:58:01.775Z,34.52
2018-06-07T10:00:32.939Z,34.62
2018-06-07T10:03:04.632Z,34.86
2018-06-07T10:05:35.856Z,36.23
2018-06-07T10:08:07.267Z,37.00
2018-06-07T10:10:38.702Z,37.57
2018-06-07T10:13:10.615Z,38.59
2018-06-07T10:15:42.428Z,37.98
2018-06-07T10:18:13.544Z,37.81
2018-06-07T10:20:45.648Z,38.51
2018-06-07T10:23:17.314Z,36.94
2018-06-07T10:25:48.472Z,35.58
2018-06-07T10:28:19.907Z,36.21
2018-06-07T10:30:51.019Z,35.55
2018-06-07T10:33:22.279Z,36.85
2018-06-07T10:35:53.327Z,35.39
2018-06-07T10:38:25.401Z,36.06
2018-06-07T10:40:56.743Z,36.02
2018-06-07T10:43:28.004Z,36.32
2018-06-07T10:45:59.211Z,36.35
2018-06-07T10:48:30.344Z,36.38
2018-06-07T10:51:01.416Z,35.49
2018-06-07T10:53:32.777Z,39.82
2018-06-07T10:56:03.960Z,37.19
2018-06-07T10:58:35.251Z,36.38
2018-06-07T11:01:06.369Z,35.72
2018-06-07T11:03:37.616Z,35.17
2018-06-07T11:06:08.662Z,38.01
2018-06-07T11:08:39.808Z,36.18
2018-06-07T11:11:11.027Z,36.57
2018-06-07T11:13:42.094Z,37.63
2018-06-07T11:16:13.099Z,38.30
2018-06-07T11:18:44.100Z,37.24
2018-06-07T11:21:15.779Z,37.90
2018-06-07T11:23:46.874Z,35.18
2018-06-07T11:26:18.652Z,36.53
2018-06-07T11:28:49.739Z,34.79
2018-06-07T11:31:20.993Z,33.70
2018-06-07T11:33:53.153Z,35.30
2018-06-07T11:36:24.298Z,36.79
2018-06-07T11:38:55.579Z,39.82
2018-06-07T11:41:26.758Z,39.54
2018-06-07T11:43:58.051Z,39.58
2018-06-07T11:46:29.225Z,38.65
2018-06-07T11:49:00.443Z,40.41
2018-06-07T11:51:31.780Z,38.18
2018-06-07T11:54:02.968Z,37.79
2018-06-07T11:56:34.177Z,37.04
2018-06-07T11:59:05.399Z,38.66
2018-06-07T12:01:36.825Z,38.56
2018-06-07T12:04:08.084Z,42.31
2018-06-07T12:06:39.102Z,41.48
2018-06-07T12:09:10.322Z,40.94
2018-06-07T12:11:41.618Z,43.59
2018-06-07T12:14:13.048Z,41.22
2018-06-07T12:16:44.176Z,39.32
2018-06-07T12:19:15.783Z,39.00
2018-06-07T12:21:46.966Z,38.18
2018-06-07T12:24:18.571Z,35.92
2018-06-07T12:26:49.851Z,35.00
2018-06-07T12:29:21.029Z,37.58
2018-06-07T12:31:52.162Z,39.00
2018-06-07T12:34:23.365Z,39.47
2018-06-07T12:36:54.516Z,38.31
2018-06-07T12:39:25.814Z,42.06
2018-06-07T12:41:57.020Z,41.65
2018-06-07T12:44:28.183Z,39.33
2018-06-07T12:46:59.440Z,40.40
2018-06-07T12:49:30.504Z,38.19
2018-06-07T12:52:01.558Z,40.08
2018-06-07T12:54:32.763Z,39.92
2018-06-07T12:57:04.525Z,38.84
2018-06-07T12:59:36.935Z,38.17
2018-06-07T13:02:08.014Z,37.94
2018-06-07T13:04:39.192Z,38.05
2018-06-07T13:07:14.483Z,41.29
2018-06-07T13:09:45.915Z,40.96
2018-06-07T13:12:19.340Z,42.69
2018-06-07T13:14:50.535Z,44.12
2018-06-07T13:17:21.731Z,45.42
2018-06-07T13:19:52.811Z,43.86
2018-06-07T13:22:23.861Z,45.15
2018-06-07T13:24:55.030Z,44.68
2018-06-07T13:27:26.231Z,45.91
2018-06-07T13:29:57.449Z,43.42
2018-06-07T13:32:28.365Z,42.59
2018-06-07T13:35:00.123Z,43.09
2018-06-07T13:37:31.308Z,41.34
2018-06-07T13:40:02.376Z,38.43
2018-06-07T13:42:33.591Z,38.24
2018-06-07T13:45:06.310Z,38.70
2018-06-07T13:47:37.418Z,40.78
2018-06-07T13:50:08.739Z,41.93
2018-06-07T13:52:39.772Z,39.94
2018-06-07T13:55:10.960Z,38.82
2018-06-07T13:57:42.534Z,39.05
2018-06-07T14:00:16.935Z,41.19
2018-06-07T14:02:48.179Z,41.33
2018-06-07T14:05:20.932Z,41.87
2018-06-07T14:07:52.479Z,42.26
2018-06-07T14:10:32.124Z,44.24
2018-06-07T14:13:25.042Z,45.09
2018-06-07T14:15:57.423Z,43.95
2018-06-07T14:18:28.764Z,44.45
2018-06-07T14:21:00.030Z,44.66
2018-06-07T14:23:31.356Z,45.17
2018-06-07T14:26:02.499Z,46.64
2018-06-07T14:28:37.258Z,47.29
2018-06-07T15:01:54.924Z,49.66
2018-06-07T15:04:26.005Z,49.20
2018-06-07T15:06:58.188Z,48.92
2018-06-07T15:09:31.317Z,49.06
2018-06-07T15:12:02.490Z,49.93
2018-06-07T15:14:33.661Z,45.96
2018-06-07T15:17:04.967Z,47.00
2018-06-07T15:19:36.072Z,45.78
2018-06-07T15:22:07.315Z,46.11
2018-06-07T15:24:38.939Z,44.01
2018-06-07T15:27:10.084Z,47.81
2018-06-07T15:29:41.283Z,48.74
2018-06-07T15:32:12.564Z,49.38
2018-06-07T15:34:43.707Z,50.64
2018-06-07T15:37:14.848Z,51.85
2018-06-07T15:39:46.049Z,50.43
2018-06-07T15:42:17.356Z,51.18
2018-06-07T15:44:48.392Z,48.52
2018-06-07T15:47:19.692Z,46.21
2018-06-07T15:49:50.623Z,47.08
2018-06-07T15:52:21.782Z,49.56
2018-06-07T15:54:53.047Z,50.78
2018-06-07T15:57:24.379Z,44.42
2018-06-07T15:59:55.602Z,45.79
2018-06-07T16:02:27.172Z,47.13
2018-06-07T16:04:58.474Z,45.89
2018-06-07T16:07:30.046Z,46.65
2018-06-07T16:10:01.161Z,48.78
2018-06-07T16:12:32.312Z,48.29
2018-06-07T16:15:03.690Z,46.96
2018-06-07T16:17:34.961Z,50.50
2018-06-07T16:20:06.235Z,52.08
2018-06-07T16:22:37.695Z,55.30
2018-06-07T16:25:09.163Z,58.62
2018-06-07T16:27:41.169Z,61.36
2018-06-07T16:30:12.551Z,62.54
2018-06-07T16:32:43.912Z,63.84
2018-06-07T16:35:17.393Z,63.29
2018-06-07T16:37:48.561Z,63.96
2018-06-07T16:40:21.179Z,64.75
2018-06-07T16:42:54.513Z,63.51
2018-06-07T16:45:27.495Z,64.81
2018-06-07T16:47:58.728Z,65.04
2018-06-07T16:50:30.541Z,65.89
2018-06-07T16:53:01.957Z,66.28
2018-06-07T16:55:38.768Z,66.09
2018-06-07T16:58:10.412Z,66.87
2018-06-07T17:04:45.947Z,66.69
2018-06-07T17:07:34.876Z,66.35
2018-06-07T17:10:53.334Z,66.07
2018-06-07T17:13:26.136Z,66.14
2018-06-07T17:15:57.850Z,66.14
2018-06-07T17:18:29.886Z,65.83
2018-06-07T17:21:01.304Z,66.15
2018-06-07T17:23:32.593Z,65.08
2018-06-07T17:26:03.943Z,67.25
2018-06-07T17:28:35.255Z,66.27
2018-06-07T17:31:06.746Z,67.50
2018-06-07T17:33:37.945Z,66.87
2018-06-07T17:36:08.993Z,67.43
2018-06-07T17:38:40.113Z,67.28
2018-06-07T17:41:11.237Z,67.71
2018-06-07T17:43:42.531Z,67.86
2018-06-07T17:46:13.827Z,69.74
2018-06-07T17:48:45.035Z,70.47
2018-06-07T17:51:16.075Z,70.60
2018-06-07T17:53:47.211Z,72.43
2018-06-07T17:56:18.373Z,72.42
2018-06-07T17:58:49.584Z,72.76
2018-06-07T18:01:22.282Z,71.44
2018-06-07T18:03:53.279Z,70.48
2018-06-07T18:06:24.481Z,69.82
2018-06-07T18:08:55.528Z,70.07
2018-06-07T18:11:27.338Z,69.33
2018-06-07T18:13:58.421Z,69.27
2018-06-07T18:16:29.979Z,70.14
2018-06-07T18:19:01.105Z,69.71
2018-06-07T18:21:32.282Z,69.46
2018-06-07T18:24:03.324Z,68.82
2018-06-07T18:26:35.792Z,70.00
2018-06-07T18:29:06.839Z,70.10
2018-06-07T18:31:37.869Z,70.09
2018-06-07T18:34:09.096Z,70.40
2018-06-07T18:36:40.575Z,72.03
2018-06-07T18:39:13.520Z,71.11
2018-06-07T18:41:44.916Z,70.61
2018-06-07T18:44:16.024Z,68.76
2018-06-07T18:46:47.095Z,68.32
2018-06-07T18:49:18.358Z,67.93
2018-06-07T18:51:49.487Z,67.85
2018-06-07T18:54:21.624Z,69.43
2018-06-07T18:56:52.901Z,69.32
2018-06-07T18:59:24.128Z,68.84
2018-06-07T19:02:36.087Z,68.50
2018-06-07T19:05:11.456Z,68.09
2018-06-07T19:07:42.638Z,70.62
2018-06-07T19:10:16.974Z,71.99
2018-06-07T19:12:48.052Z,74.45
2018-06-07T19:15:19.354Z,74.58
2018-06-07T19:17:50.680Z,75.94
2018-06-07T19:20:27.707Z,76.02
2018-06-07T19:22:59.080Z,75.43
2018-06-07T19:25:35.995Z,76.77
2018-06-07T19:28:07.158Z,76.92
2018-06-07T19:30:38.564Z,77.07
2018-06-07T19:33:18.850Z,76.03
2018-06-07T19:35:51.541Z,76.68
2018-06-07T19:38:32.713Z,77.20
2018-06-07T19:41:09.220Z,77.67
2018-06-07T19:43:40.618Z,78.87
2018-06-07T19:46:11.848Z,79.14
2018-06-07T19:48:43.178Z,79.22
2018-06-07T19:51:14.759Z,81.05
2018-06-07T19:53:46.052Z,80.86
2018-06-07T19:56:17.378Z,79.29
2018-06-07T19:58:48.758Z,82.04
2018-06-07T20:01:29.081Z,83.48
2018-06-07T20:04:02.821Z,84.31
2018-06-07T20:06:40.724Z,84.79
2018-06-07T20:09:12.611Z,84.24
2018-06-07T20:11:43.850Z,84.68
2018-06-07T20:14:15.220Z,85.51
2018-06-07T20:16:46.511Z,85.97
2018-06-07T20:19:17.600Z,86.05
2018-06-07T20:21:48.532Z,85.46
2018-06-07T20:24:20.734Z,85.53
2018-06-07T20:26:52.277Z,84.75
2018-06-07T20:29:24.528Z,85.64
2018-06-07T20:31:56.450Z,85.39
2018-06-07T20:34:28.972Z,84.83
2018-06-07T20:37:00.981Z,83.55
2018-06-07T20:39:33.292Z,83.30
2018-06-07T20:42:06.324Z,83.81
2018-06-07T20:44:40.300Z,84.50
2018-06-07T20:47:47.655Z,83.25
2018-06-07T20:50:29.162Z,83.60
2018-06-07T20:53:05.139Z,82.81
2018-06-07T20:55:38.916Z,83.47
2018-06-07T20:58:14.926Z,82.53
2018-06-07T21:00:50.418Z,83.17
2018-06-07T21:03:24.522Z,83.72
2018-06-07T21:05:59.087Z,82.52
2018-06-07T21:08:31.551Z,82.67
2018-06-07T21:11:04.259Z,83.95
2018-06-07T21:13:46.334Z,85.90
2018-06-07T21:16:26.910Z,89.00
2018-06-07T21:19:00.689Z,90.29
2018-06-07T21:21:33.364Z,89.82
2018-06-07T21:24:18.649Z,89.30
2018-06-07T21:26:51.270Z,89.19
2018-06-07T21:29:33.532Z,88.78
2018-06-07T21:32:07.895Z,88.69
2018-06-07T21:34:39.007Z,89.17
2018-06-07T21:37:11.825Z,89.99
2018-06-07T21:39:43.131Z,91.58
2018-06-07T21:42:14.693Z,86.58
2018-06-07T21:44:47.537Z,95.31
2018-06-07T21:47:19.072Z,100.00
2018-06-07T21:49:51.520Z,100.00
2018-06-07T21:52:23.184Z,99.54
2018-06-07T21:55:04.103Z,98.66
2018-06-07T22:00:42.151Z,99.97
2018-06-07T22:03:23.934Z,96.28
2018-06-07T22:06:06.217Z,96.93
2018-06-07T22:08:37.760Z,98.91
2018-06-07T22:11:09.586Z,97.50
2018-06-07T22:13:47.156Z,98.52
2018-06-07T22:16:28.982Z,98.08
2018-06-07T22:19:38.917Z,98.02
2018-06-07T22:22:10.793Z,99.05
2018-06-07T22:24:42.896Z,99.77
2018-06-07T22:27:39.043Z,100.00
2018-06-07T22:30:26.007Z,100.00
2018-06-07T22:32:57.912Z,98.90
2018-06-07T22:35:32.713Z,100.00
2018-06-07T22:38:04.427Z,99.71
2018-06-07T22:40:35.609Z,98.92
2018-06-07T22:43:06.729Z,99.59
2018-06-07T22:45:38.432Z,100.00
2018-06-07T22:51:14.900Z,100.00
2018-06-07T22:53:47.055Z,100.00
2018-06-07T22:56:24.417Z,100.00
2018-06-07T22:58:55.978Z,100.00
2018-06-07T23:01:27.451Z,100.00
2018-06-07T23:03:58.611Z,100.00
2018-06-07T23:06:30.828Z,100.00
2018-06-07T23:09:02.002Z,98.65
2018-06-07T23:11:33.546Z,98.47
2018-06-07T23:14:04.644Z,95.25
2018-06-07T23:16:35.743Z,92.92
2018-06-07T23:19:06.913Z,93.72
2018-06-07T23:21:38.215Z,96.09
2018-06-07T23:24:09.682Z,96.49
2018-06-07T23:26:40.863Z,96.09
2018-06-07T23:29:16.943Z,94.48
2018-06-07T23:31:56.900Z,96.52
2018-06-07T23:34:45.173Z,97.42
2018-06-07T23:37:26.984Z,98.41
2018-06-07T23:39:58.507Z,98.64
2018-06-07T23:42:31.805Z,99.14
2018-06-07T23:45:03.144Z,94.51
2018-06-07T23:47:34.739Z,97.46
2018-06-07T23:50:33.683Z,94.08
2018-06-07T23:53:16.284Z,91.12
2018-06-07T23:55:47.455Z,91.61
2018-06-07T23:58:25.200Z,94.78
